Terminal Aerodrome Forecast
Issued by NWS

Home | Current Version | Previous Version | Text Only | Print | Product List | Glossary On
Versions: 1 2 3 4 5 6 7 8 9 10 11 12 13 14 15 16 17 18 19 20 21 22 23 24 25 26 27 28 29 30 31 32 33 34 35 36 37 38 39 40 41
000
FTUS43 KMKX 051136
TAFENW
TAF
KENW 051136Z 0512/0612 07011KT 6SM -SHRA BR SCT025 OVC050
     FM051400 08013KT 6SM SHRA BR OVC035
     FM051600 07012KT 6SM SHRA BR OVC025
     FM052000 07012G21KT 6SM BR VCTS OVC015CB
     FM060000 06008KT 6SM BR OVC012
     FM060500 VRB03KT 3SM BR OVC008=

USA.gov is the U.S. government's official web portal to all federal, state and local government web resources and services.